Time,TemperatureF,DewpointF,PressureIn,WindDirection,WindDirectionDegrees,WindSpeedMPH,WindSpeedGustMPH,Humidity,HourlyPrecipIn,Conditions,Clouds,dailyrainin,SoftwareType,DateUTC
2013-10-21 00:02:00,22.0,18.0,-100.00,South,175,7.0,13.0,86,0.00,,,0.00,,2013-10-21 06:02:00,
2013-10-21 00:12:00,22.0,18.0,-100.00,South,175,7.0,13.0,86,0.00,,,0.00,,2013-10-21 06:12:00,
2013-10-21 00:22:00,22.0,18.0,-100.00,South,175,7.0,13.0,86,0.00,,,0.00,,2013-10-21 06:22:00,
2013-10-21 00:52:00,23.0,19.0,-100.00,SW,219,4.0,19.0,84,0.00,,,0.00,,2013-10-21 06:52:00,
2013-10-21 01:02:00,23.0,19.0,-100.00,SW,219,4.0,19.0,84,0.00,,,0.00,,2013-10-21 07:02:00,
2013-10-21 01:12:00,23.0,19.0,-100.00,SW,219,4.0,19.0,84,0.00,,,0.00,,2013-10-21 07:12:00,
2013-10-21 01:22:00,23.0,19.0,-100.00,SW,219,4.0,19.0,84,0.00,,,0.00,,2013-10-21 07:22:00,
2013-10-21 01:52:00,22.0,19.0,-100.00,WSW,244,5.0,12.0,87,0.00,,,0.00,,2013-10-21 07:52:00,
2013-10-21 02:03:00,22.0,19.0,-100.00,WSW,244,5.0,12.0,87,0.00,,,0.00,,2013-10-21 08:03:00,
2013-10-21 02:12:00,22.0,19.0,-100.00,WSW,244,5.0,12.0,87,0.00,,,0.00,,2013-10-21 08:12:00,
2013-10-21 02:21:00,22.0,19.0,-100.00,WSW,244,5.0,12.0,87,0.00,,,0.00,,2013-10-21 08:21:00,
2013-10-21 02:52:00,21.0,19.0,-100.00,SW,232,4.0,15.0,93,0.00,,,0.00,,2013-10-21 08:52:00,
2013-10-21 03:02:00,21.0,19.0,-100.00,SW,232,4.0,15.0,93,0.00,,,0.00,,2013-10-21 09:02:00,
2013-10-21 03:11:00,21.0,19.0,-100.00,SW,232,4.0,15.0,93,0.00,,,0.00,,2013-10-21 09:11:00,
2013-10-21 03:22:00,21.0,19.0,-100.00,SW,232,4.0,15.0,93,0.00,,,0.00,,2013-10-21 09:22:00,
2013-10-21 03:54:00,21.0,19.0,-100.00,West,273,4.0,7.0,93,0.00,,,0.00,,2013-10-21 09:54:00,
2013-10-21 04:03:00,21.0,19.0,-100.00,West,273,4.0,7.0,93,0.00,,,0.00,,2013-10-21 10:03:00,
2013-10-21 04:13:00,21.0,19.0,-100.00,West,273,4.0,7.0,93,0.00,,,0.00,,2013-10-21 10:13:00,
2013-10-21 04:23:00,21.0,19.0,-100.00,West,273,4.0,7.0,93,0.00,,,0.00,,2013-10-21 10:23:00,
2013-10-21 04:52:00,20.0,18.0,-100.00,South,188,3.0,10.0,92,0.00,,,0.00,,2013-10-21 10:52:00,
2013-10-21 05:02:00,20.0,18.0,-100.00,South,188,3.0,10.0,92,0.00,,,0.00,,2013-10-21 11:02:00,
2013-10-21 05:12:00,20.0,18.0,-100.00,South,188,3.0,10.0,92,0.00,,,0.00,,2013-10-21 11:12:00,
2013-10-21 05:22:00,20.0,18.0,-100.00,South,188,3.0,10.0,92,0.00,,,0.00,,2013-10-21 11:22:00,
2013-10-21 05:52:00,20.0,17.0,-100.00,SW,219,4.0,6.0,88,0.00,,,0.00,,2013-10-21 11:52:00,
2013-10-21 06:01:00,20.0,17.0,-100.00,SW,219,4.0,6.0,88,0.00,,,0.00,,2013-10-21 12:01:00,
2013-10-21 06:12:00,20.0,17.0,-100.00,SW,219,4.0,6.0,88,0.00,,,0.00,,2013-10-21 12:12:00,
2013-10-21 06:22:00,20.0,17.0,-100.00,SW,219,4.0,6.0,88,0.00,,,0.00,,2013-10-21 12:22:00,
2013-10-21 06:52:00,20.0,16.0,-100.00,SW,218,5.0,8.0,83,0.00,,,0.00,,2013-10-21 12:52:00,
2013-10-21 07:02:00,20.0,16.0,-100.00,SW,218,5.0,8.0,83,0.00,,,0.00,,2013-10-21 13:02:00,
2013-10-21 07:11:00,20.0,16.0,-100.00,SW,218,5.0,8.0,83,0.00,,,0.00,,2013-10-21 13:11:00,
2013-10-21 07:22:00,20.0,16.0,-100.00,SW,218,5.0,8.0,83,0.00,,,0.00,,2013-10-21 13:22:00,
2013-10-21 07:52:00,21.0,16.0,-100.00,SW,223,5.0,6.0,79,0.00,,,0.00,,2013-10-21 13:52:00,
2013-10-21 08:02:00,21.0,16.0,-100.00,SW,223,5.0,6.0,79,0.00,,,0.00,,2013-10-21 14:02:00,
2013-10-21 08:12:00,21.0,16.0,-100.00,SW,223,5.0,6.0,79,0.00,,,0.00,,2013-10-21 14:12:00,
2013-10-21 08:22:00,21.0,16.0,-100.00,SW,223,5.0,6.0,79,0.00,,,0.00,,2013-10-21 14:22:00,
2013-10-21 08:52:00,21.0,16.0,-100.00,SSW,210,6.0,10.0,80,0.00,,,0.00,,2013-10-21 14:52:00,
2013-10-21 09:02:00,21.0,16.0,-100.00,SSW,210,6.0,10.0,80,0.00,,,0.00,,2013-10-21 15:02:00,
2013-10-21 09:12:00,21.0,16.0,-100.00,SSW,210,6.0,10.0,80,0.00,,,0.00,,2013-10-21 15:12:00,
2013-10-21 09:21:00,21.0,16.0,-100.00,SSW,210,6.0,10.0,80,0.00,,,0.00,,2013-10-21 15:21:00,
2013-10-21 09:54:00,26.0,19.0,-100.00,WSW,242,5.0,15.0,74,0.00,,,0.00,,2013-10-21 15:54:00,
2013-10-21 10:03:00,26.0,19.0,-100.00,WSW,242,5.0,15.0,74,0.00,,,0.00,,2013-10-21 16:03:00,
2013-10-21 10:13:00,26.0,19.0,-100.00,WSW,242,5.0,15.0,74,0.00,,,0.00,,2013-10-21 16:13:00,
2013-10-21 10:23:00,26.0,19.0,-100.00,WSW,242,5.0,15.0,74,0.00,,,0.00,,2013-10-21 16:23:00,
2013-10-21 10:54:00,28.0,19.0,-100.00,West,272,6.0,10.0,68,0.00,,,0.00,,2013-10-21 16:54:00,
2013-10-21 11:02:00,28.0,19.0,-100.00,West,272,6.0,10.0,68,0.00,,,0.00,,2013-10-21 17:02:00,
2013-10-21 11:12:00,28.0,19.0,-100.00,West,272,6.0,10.0,68,0.00,,,0.00,,2013-10-21 17:12:00,
2013-10-21 11:22:00,28.0,19.0,-100.00,West,272,6.0,10.0,68,0.00,,,0.00,,2013-10-21 17:22:00,
2013-10-21 11:53:00,30.0,19.0,-100.00,WNW,301,8.0,14.0,64,0.02,,,0.02,,2013-10-21 17:53:00,
2013-10-21 12:02:00,30.0,19.0,-100.00,WNW,301,8.0,14.0,64,0.02,,,0.02,,2013-10-21 18:02:00,
2013-10-21 12:12:00,30.0,19.0,-100.00,WNW,301,8.0,14.0,64,0.02,,,0.02,,2013-10-21 18:12:00,
2013-10-21 12:22:00,30.0,19.0,-100.00,WNW,301,8.0,14.0,64,0.02,,,0.02,,2013-10-21 18:22:00,
2013-10-21 12:52:00,33.0,21.0,-100.00,West,271,9.0,18.0,60,0.00,,,0.02,,2013-10-21 18:52:00,
2013-10-21 13:02:00,33.0,21.0,-100.00,West,271,9.0,18.0,60,0.00,,,0.02,,2013-10-21 19:02:00,
2013-10-21 13:11:00,33.0,21.0,-100.00,West,271,9.0,18.0,60,0.00,,,0.02,,2013-10-21 19:11:00,
2013-10-21 13:22:00,33.0,21.0,-100.00,West,271,9.0,18.0,60,0.00,,,0.02,,2013-10-21 19:22:00,
2013-10-21 13:52:00,35.0,19.0,-100.00,West,270,8.0,15.0,52,0.00,,,0.02,,2013-10-21 19:52:00,
2013-10-21 14:02:00,35.0,19.0,-100.00,West,270,8.0,15.0,52,0.00,,,0.02,,2013-10-21 20:02:00,
2013-10-21 14:11:00,35.0,19.0,-100.00,West,270,8.0,15.0,52,0.00,,,0.02,,2013-10-21 20:11:00,
2013-10-21 14:22:00,35.0,19.0,-100.00,West,270,8.0,15.0,52,0.00,,,0.02,,2013-10-21 20:22:00,
2013-10-21 14:53:00,36.0,20.0,-100.00,West,275,8.0,17.0,51,0.00,,,0.02,,2013-10-21 20:53:00,
2013-10-21 15:03:00,36.0,20.0,-100.00,West,275,8.0,17.0,51,0.00,,,0.02,,2013-10-21 21:03:00,
2013-10-21 15:12:00,36.0,20.0,-100.00,West,275,8.0,17.0,51,0.00,,,0.02,,2013-10-21 21:12:00,
2013-10-21 15:22:00,36.0,20.0,-100.00,West,275,8.0,17.0,51,0.00,,,0.02,,2013-10-21 21:22:00,
2013-10-21 15:54:00,36.0,18.0,-100.00,West,278,10.0,17.0,48,0.00,,,0.02,,2013-10-21 21:54:00,
2013-10-21 16:04:00,36.0,18.0,-100.00,West,278,10.0,17.0,48,0.00,,,0.02,,2013-10-21 22:04:00,
2013-10-21 16:13:00,36.0,18.0,-100.00,West,278,10.0,17.0,48,0.00,,,0.02,,2013-10-21 22:13:00,
2013-10-21 16:24:00,36.0,18.0,-100.00,West,278,10.0,17.0,48,0.00,,,0.02,,2013-10-21 22:24:00,
2013-10-21 16:54:00,36.0,21.0,-100.00,NW,312,7.0,15.0,53,0.00,,,0.02,,2013-10-21 22:54:00,
2013-10-21 17:03:00,36.0,21.0,-100.00,NW,312,7.0,15.0,53,0.00,,,0.02,,2013-10-21 23:03:00,
2013-10-21 17:13:00,36.0,21.0,-100.00,NW,312,7.0,15.0,53,0.00,,,0.02,,2013-10-21 23:13:00,
2013-10-21 17:22:00,36.0,21.0,-100.00,NW,312,7.0,15.0,53,0.00,,,0.02,,2013-10-21 23:22:00,
2013-10-21 17:53:00,36.0,21.0,-100.00,West,262,5.0,13.0,55,0.00,,,0.02,,2013-10-21 23:53:00,
2013-10-21 18:02:00,36.0,21.0,-100.00,West,262,5.0,13.0,55,0.00,,,0.02,,2013-10-22 00:02:00,
2013-10-21 18:12:00,36.0,21.0,-100.00,West,262,5.0,13.0,55,0.00,,,0.02,,2013-10-22 00:12:00,
2013-10-21 18:22:00,36.0,21.0,-100.00,West,262,5.0,13.0,55,0.00,,,0.02,,2013-10-22 00:22:00,
2013-10-21 18:53:00,30.0,19.0,-100.00,West,273,6.0,11.0,63,0.00,,,0.02,,2013-10-22 00:53:00,
2013-10-21 19:03:00,30.0,19.0,-100.00,West,273,6.0,11.0,63,0.00,,,0.02,,2013-10-22 01:03:00,
2013-10-21 19:12:00,30.0,19.0,-100.00,West,273,6.0,11.0,63,0.00,,,0.02,,2013-10-22 01:12:00,
2013-10-21 19:22:00,30.0,19.0,-100.00,West,273,6.0,11.0,63,0.00,,,0.02,,2013-10-22 01:22:00,
2013-10-21 19:53:00,29.0,17.0,-100.00,West,279,4.0,11.0,61,0.00,,,0.02,,2013-10-22 01:53:00,
2013-10-21 20:02:00,29.0,17.0,-100.00,West,279,4.0,11.0,61,0.00,,,0.02,,2013-10-22 02:02:00,
2013-10-21 20:11:00,29.0,17.0,-100.00,West,279,4.0,11.0,61,0.00,,,0.02,,2013-10-22 02:11:00,
2013-10-21 20:22:00,29.0,17.0,-100.00,West,279,4.0,11.0,61,0.00,,,0.02,,2013-10-22 02:22:00,
2013-10-21 20:52:00,28.0,17.0,-100.00,ENE,73,0.0,13.0,64,0.00,,,0.02,,2013-10-22 02:52:00,
2013-10-21 21:03:00,28.0,17.0,-100.00,ENE,73,0.0,13.0,64,0.00,,,0.02,,2013-10-22 03:03:00,
2013-10-21 21:12:00,28.0,17.0,-100.00,ENE,73,0.0,13.0,64,0.00,,,0.02,,2013-10-22 03:12:00,
2013-10-21 21:22:00,28.0,17.0,-100.00,ENE,73,0.0,13.0,64,0.00,,,0.02,,2013-10-22 03:22:00,
2013-10-21 21:55:00,27.0,17.0,-100.00,ESE,109,2.0,6.0,65,0.00,,,0.02,,2013-10-22 03:55:00,
2013-10-21 22:05:00,27.0,17.0,-100.00,ESE,109,2.0,6.0,65,0.00,,,0.02,,2013-10-22 04:05:00,
2013-10-21 22:13:00,27.0,17.0,-100.00,ESE,109,2.0,6.0,65,0.00,,,0.02,,2013-10-22 04:13:00,
2013-10-21 22:25:00,27.0,17.0,-100.00,ESE,109,2.0,6.0,65,0.00,,,0.02,,2013-10-22 04:25:00,
2013-10-21 22:55:00,28.0,17.0,-100.00,SW,227,1.0,6.0,63,0.00,,,0.02,,2013-10-22 04:55:00,
2013-10-21 23:04:00,28.0,17.0,-100.00,SW,227,1.0,6.0,63,0.00,,,0.02,,2013-10-22 05:04:00,
2013-10-21 23:13:00,28.0,17.0,-100.00,SW,227,1.0,6.0,63,0.00,,,0.02,,2013-10-22 05:13:00,
2013-10-21 23:22:00,28.0,17.0,-100.00,SW,227,1.0,6.0,63,0.00,,,0.02,,2013-10-22 05:22:00,
2013-10-21 23:52:00,29.0,16.0,-100.00,SW,217,6.0,10.0,57,0.00,,,0.02,,2013-10-22 05:52:00,